Time;durP1;ratioP1;P1;durP2;ratioP2;P2;SDS_P1;SDS_P2;PMS_P1;PMS_P2;Temp;Humidity;BMP_temperature;BMP_pressure;BME280_temperature;BME280_humidity;BME280_pressure;Samples;Min_cycle;Max_cycle;Signal;HPM_P1;HPM_P2
2022/12/15 00:41:08;;;;;;;54.97;19.30;;;;;;;;;;5023947;28;20546;-60
2022/12/15 00:43:36;;;;;;;68.97;23.77;;;1.10;96.50;;;;;;5013454;28;20489;-60
2022/12/15 00:48:58;;;;;;;65.53;21.80;;;;;;;;;;4971731;28;20598;-60
2022/12/15 01:21:41;;;;;;;76.37;22.00;;;1.30;96.20;;;;;;5026821;28;20552;-59
2022/12/15 01:24:08;;;;;;;63.07;20.77;;;1.30;96.20;;;;;;5049928;28;20480;-60
2022/12/15 01:26:35;;;;;;;89.17;24.23;;;;;;;;;;5036574;28;20939;-60
2022/12/15 01:29:01;;;;;;;63.53;19.47;;;1.30;96.30;;;;;;5039232;28;20475;-59
2022/12/15 01:31:28;;;;;;;85.53;23.37;;;;;;;;;;5042001;28;20485;-60
2022/12/15 01:33:57;;;;;;;64.20;21.23;;;1.20;96.30;;;;;;5040436;28;20484;-59
2022/12/15 01:36:23;;;;;;;58.80;20.53;;;1.20;96.40;;;;;;5037048;28;20484;-59
2022/12/15 01:38:50;;;;;;;60.17;21.23;;;1.20;96.50;;;;;;5039287;28;20507;-60
2022/12/15 01:41:16;;;;;;;56.97;19.80;;;1.20;96.40;;;;;;5041620;28;20511;-59
2022/12/15 01:43:43;;;;;;;58.27;20.40;;;1.20;96.50;;;;;;5042840;28;20975;-59
2022/12/15 01:46:11;;;;;;;59.23;19.00;;;1.20;96.50;;;;;;5043886;28;20774;-59
2022/12/15 01:48:41;;;;;;;67.60;22.57;;;1.20;96.40;;;;;;5042333;28;20510;-59
2022/12/15 01:51:14;;;;;;;63.23;20.93;;;1.20;96.40;;;;;;5041464;28;20842;-60
2022/12/15 01:53:45;;;;;;;63.90;19.53;;;0.30;96.00;;;;;;5039895;28;21010;-59
2022/12/15 01:56:12;;;;;;;56.73;18.83;;;1.40;96.40;;;;;;5041352;28;20480;-59
2022/12/15 01:58:41;;;;;;;58.63;20.30;;;;;;;;;;5043313;28;20491;-59
2022/12/15 02:01:09;;;;;;;61.20;18.20;;;-0.90;95.20;;;;;;5037034;28;20471;-60
2022/12/15 02:03:36;;;;;;;71.60;22.63;;;1.40;96.30;;;;;;5049571;28;20844;-59
2022/12/15 02:06:03;;;;;;;68.23;20.60;;;;;;;;;;5042704;28;21031;-59
2022/12/15 02:08:32;;;;;;;65.47;21.90;;;;;;;;;;5037167;28;20470;-60
2022/12/15 02:11:36;;;;;;;47.27;17.47;;;1.30;96.20;;;;;;5042429;28;20556;-59
2022/12/15 02:14:04;;;;;;;59.53;20.20;;;1.30;96.20;;;;;;4995592;28;20460;-60
2022/12/15 02:16:42;;;;;;;84.27;23.37;;;1.30;96.10;;;;;;5013028;28;20965;-59
2022/12/15 02:19:30;;;;;;;65.23;21.10;;;1.20;96.10;;;;;;5029226;28;20474;-59
2022/12/15 02:22:02;;;;;;;63.77;18.13;;;;;;;;;;5029679;28;20485;-59
2022/12/15 02:24:48;;;;;;;84.60;24.83;;;;;;;;;;5024393;28;20476;-59
2022/12/15 02:27:29;;;;;;;72.40;21.40;;;;;;;;;;5034450;28;20476;-59
2022/12/15 02:30:10;;;;;;;64.23;19.67;;;;;;;;;;5026098;28;20484;-59
2022/12/15 02:32:42;;;;;;;67.83;23.13;;;1.20;96.50;;;;;;4990759;28;20475;-59
2022/12/15 02:35:13;;;;;;;46.00;18.93;;;;;;;;;;5011991;28;20556;-59
2022/12/15 02:37:41;;;;;;;61.37;20.10;;;1.10;96.20;;;;;;5022157;28;20516;-59
2022/12/15 02:40:09;;;;;;;61.80;20.63;;;;;;;;;;5040675;28;20961;-59
2022/12/15 02:42:38;;;;;;;55.53;19.03;;;;;;;;;;5041002;28;20495;-59
2022/12/15 02:45:07;;;;;;;49.47;18.23;;;;;;;;;;5037092;28;20810;-59
2022/12/15 02:47:39;;;;;;;83.73;25.57;;;;;;;;;;5031389;28;22429;-59
2022/12/15 02:50:27;;;;;;;51.33;20.07;;;1.20;96.40;;;;;;5027542;28;20837;-60
2022/12/15 02:53:02;;;;;;;58.00;23.30;;;1.20;96.30;;;;;;5019561;28;20493;-60
2022/12/15 02:55:37;;;;;;;70.20;23.77;;;1.20;96.50;;;;;;5005831;28;21244;-60
2022/12/15 02:58:10;;;;;;;60.70;17.90;;;1.10;96.20;;;;;;5012838;28;20472;-60
2022/12/15 03:00:39;;;;;;;61.27;21.00;;;;;;;;;;5029176;28;20477;-60
2022/12/15 03:03:08;;;;;;;58.67;19.47;;;;;;;;;;5040246;28;20484;-60
2022/12/15 03:05:35;;;;;;;65.53;21.80;;;;;;;;;;5038667;28;20479;-60
2022/12/15 03:08:02;;;;;;;55.43;19.60;;;;;;;;;;5029086;28;20468;-60
2022/12/15 03:10:29;;;;;;;68.00;23.43;;;1.30;96.30;;;;;;5041611;28;20480;-60
2022/12/15 03:12:57;;;;;;;60.03;20.27;;;1.30;96.20;;;;;;5038584;28;20484;-60
2022/12/15 03:15:24;;;;;;;50.80;18.97;;;1.30;96.10;;;;;;5038785;28;20491;-60
2022/12/15 03:17:51;;;;;;;58.63;20.03;;;1.30;96.00;;;;;;5039006;28;20491;-60
2022/12/15 03:20:19;;;;;;;56.20;20.00;;;1.10;95.80;;;;;;5041045;28;20479;-60
2022/12/15 03:22:46;;;;;;;61.67;20.17;;;1.10;96.10;;;;;;5041855;28;20984;-60
2022/12/15 03:25:13;;;;;;;49.40;19.20;;;1.10;96.10;;;;;;5041795;28;20660;-59
2022/12/15 03:27:40;;;;;;;66.67;19.40;;;1.10;96.20;;;;;;5024543;28;20489;-60
2022/12/15 03:30:08;;;;;;;62.37;19.50;;;;;;;;;;5020164;28;20488;-60
2022/12/15 03:32:34;;;;;;;71.57;21.60;;;1.10;96.40;;;;;;5020702;28;20481;-60
2022/12/15 03:35:02;;;;;;;60.27;19.80;;;;;;;;;;5019593;28;20499;-59
2022/12/15 03:37:30;;;;;;;55.57;17.70;;;;;;;;;;5020983;28;20481;-60
2022/12/15 03:39:57;;;;;;;47.63;17.10;;;;;;;;;;5020379;28;20485;-61
2022/12/15 03:45:05;;;;;;;44.63;16.50;;;0.90;96.20;;;;;;5021608;28;20575;-60
2022/12/15 03:47:32;;;;;;;61.70;19.70;;;0.70;96.10;;;;;;5023930;28;20477;-60
2022/12/15 03:49:59;;;;;;;45.37;17.77;;;0.90;96.50;;;;;;5021177;28;20481;-60
2022/12/15 03:52:26;;;;;;;70.03;24.63;;;0.90;96.50;;;;;;5019440;28;20588;-60
2022/12/15 03:54:54;;;;;;;41.33;17.63;;;;;;;;;;5019599;28;20494;-60
2022/12/15 03:57:22;;;;;;;69.07;18.63;;;;;;;;;;5018479;28;20493;-60
2022/12/15 03:59:48;;;;;;;58.53;21.23;;;1.10;96.40;;;;;;5035024;28;20476;-60
2022/12/15 04:02:15;;;;;;;41.80;17.17;;;1.00;96.20;;;;;;5038728;28;20526;-60
2022/12/15 04:04:42;;;;;;;55.27;19.00;;;;;;;;;;5037861;28;20476;-60
2022/12/15 04:07:09;;;;;;;51.67;17.53;;;;;;;;;;5037775;28;20485;-60
2022/12/15 04:09:36;;;;;;;55.27;20.80;;;1.20;96.40;;;;;;5036690;28;20938;-60
2022/12/15 04:12:04;;;;;;;61.03;19.57;;;1.20;96.30;;;;;;5038616;28;20996;-60
2022/12/15 04:14:31;;;;;;;56.50;19.40;;;1.30;96.40;;;;;;5039717;28;20487;-60
2022/12/15 04:16:58;;;;;;;44.80;18.30;;;;;;;;;;5035308;28;20484;-60
2022/12/15 04:22:10;;;;;;;62.97;19.03;;;1.40;96.20;;;;;;5024367;28;21045;-59
2022/12/15 05:33:16;;;;;;;47.83;18.57;;;0.90;96.50;;;;;;5007120;28;20486;-60
2022/12/15 05:35:43;;;;;;;53.20;17.83;;;0.90;96.40;;;;;;5031533;28;20488;-59
2022/12/15 05:38:10;;;;;;;53.17;16.70;;;;;;;;;;5024414;28;20484;-59
2022/12/15 05:40:37;;;;;;;53.23;18.60;;;1.00;96.50;;;;;;5023442;28;20492;-59
2022/12/15 05:43:04;;;;;;;54.00;15.90;;;0.80;96.50;;;;;;5022594;28;20999;-59
2022/12/15 05:45:31;;;;;;;69.63;21.90;;;0.80;96.40;;;;;;5021100;28;20488;-59
2022/12/15 05:47:58;;;;;;;52.07;18.20;;;0.80;96.40;;;;;;5028001;28;20484;-59
2022/12/15 05:50:27;;;;;;;60.70;20.53;;;;;;;;;;5018945;28;20972;-59
2022/12/15 05:52:54;;;;;;;56.73;17.70;;;0.90;96.40;;;;;;5020779;28;20481;-59
2022/12/15 05:55:21;;;;;;;53.00;18.67;;;0.90;96.30;;;;;;5020141;28;20512;-59
2022/12/15 05:57:51;;;;;;;49.20;16.93;;;0.90;95.90;;;;;;5023370;28;20760;-59
2022/12/15 06:00:19;;;;;;;66.03;17.40;;;0.80;95.80;;;;;;5031975;28;20479;-59
2022/12/15 06:02:46;;;;;;;57.10;16.83;;;0.80;95.80;;;;;;5043001;28;22011;-59
2022/12/15 06:05:13;;;;;;;56.50;18.90;;;;;;;;;;5039982;28;20884;-59
2022/12/15 06:07:41;;;;;;;53.90;14.83;;;0.80;95.80;;;;;;5039865;28;20809;-59
2022/12/15 06:10:09;;;;;;;45.77;15.93;;;0.70;95.50;;;;;;5041631;28;21073;-60
2022/12/15 06:12:36;;;;;;;49.67;16.87;;;0.70;95.80;;;;;;5042697;28;20519;-59
2022/12/15 06:15:05;;;;;;;57.50;18.70;;;0.60;95.80;;;;;;5038535;28;20990;-59
2022/12/15 06:17:32;;;;;;;65.77;21.83;;;;;;;;;;5040376;28;20499;-59
2022/12/15 06:19:59;;;;;;;45.63;15.73;;;0.60;95.70;;;;;;5042797;28;20949;-59
2022/12/15 06:22:26;;;;;;;57.83;17.87;;;;;;;;;;5043571;28;20510;-59
2022/12/15 06:24:54;;;;;;;67.30;18.40;;;0.50;95.80;;;;;;5037217;28;20491;-59
2022/12/15 06:27:21;;;;;;;53.50;16.70;;;0.40;95.70;;;;;;5039909;28;20500;-60
2022/12/15 06:29:48;;;;;;;51.37;13.77;;;;;;;;;;5030521;28;20476;-59
2022/12/15 06:32:15;;;;;;;51.70;16.57;;;0.10;95.30;;;;;;5010257;28;20481;-59
2022/12/15 06:34:42;;;;;;;50.67;14.73;;;;;;;;;;5018920;28;20498;-59
2022/12/15 06:37:09;;;;;;;70.50;16.50;;;;;;;;;;5030069;28;20848;-59
2022/12/15 06:39:36;;;;;;;50.40;18.37;;;-0.30;95.30;;;;;;5039412;28;20481;-60
2022/12/15 06:42:04;;;;;;;52.40;16.53;;;;;;;;;;5036373;28;20504;-59
2022/12/15 06:44:31;;;;;;;58.07;17.83;;;;;;;;;;5032262;28;20872;-59
2022/12/15 06:46:58;;;;;;;57.83;14.67;;;2.60;96.40;;;;;;5039349;28;20472;-60
2022/12/15 06:49:25;;;;;;;41.57;14.03;;;-0.70;95.20;;;;;;5026907;28;20485;-59
2022/12/15 06:51:52;;;;;;;61.90;17.27;;;;;;;;;;5034373;28;20555;-60
2022/12/15 06:54:18;;;;;;;42.30;13.87;;;-1.00;95.00;;;;;;5040857;28;20468;-59
2022/12/15 06:56:45;;;;;;;54.87;16.07;;;-1.10;95.40;;;;;;5034604;28;20484;-59
2022/12/15 06:59:13;;;;;;;77.27;20.70;;;-1.10;95.60;;;;;;5028853;28;21045;-60
2022/12/15 07:01:41;;;;;;;68.63;19.87;;;-1.00;95.40;;;;;;5048673;28;20495;-60
2022/12/15 07:04:09;;;;;;;58.27;15.23;;;-0.90;95.30;;;;;;5039847;28;20479;-60
2022/12/15 07:06:38;;;;;;;54.20;15.83;;;-0.90;94.80;;;;;;5045959;28;20487;-59
2022/12/15 07:09:07;;;;;;;60.10;15.90;;;;;;;;;;5040899;28;20468;-59
2022/12/15 07:11:34;;;;;;;66.73;18.97;;;;;;;;;;5040914;28;20512;-60
2022/12/15 07:14:00;;;;;;;56.00;14.60;;;-1.30;94.40;;;;;;5041384;28;20484;-60
2022/12/15 07:16:29;;;;;;;88.00;23.33;;;-1.40;95.10;;;;;;5033901;28;20511;-59
2022/12/15 07:18:55;;;;;;;55.83;15.03;;;-1.50;95.30;;;;;;5037719;28;20976;-59
2022/12/15 07:21:22;;;;;;;58.00;17.70;;;;;;;;;;5045452;28;20464;-59
2022/12/15 07:23:49;;;;;;;50.17;16.70;;;-1.40;95.40;;;;;;5048456;28;20488;-59
2022/12/15 07:26:16;;;;;;;55.13;16.20;;;-1.50;95.30;;;;;;5022638;28;20821;-59
2022/12/15 07:28:43;;;;;;;58.40;18.47;;;-1.30;95.40;;;;;;5029538;28;20488;-59
2022/12/15 07:31:10;;;;;;;54.40;16.70;;;-1.20;95.60;;;;;;5020930;28;20844;-59
2022/12/15 07:33:39;;;;;;;65.80;18.20;;;;;;;;;;5019787;28;20571;-60
2022/12/15 07:36:08;;;;;;;42.60;15.70;;;-1.00;95.20;;;;;;5022004;28;20905;-59
2022/12/15 07:38:35;;;;;;;80.23;22.20;;;;;;;;;;5022066;28;20516;-59
2022/12/15 07:41:03;;;;;;;55.03;18.03;;;;;;;;;;5021597;28;20485;-59
2022/12/15 07:43:31;;;;;;;73.70;21.37;;;-1.20;95.20;;;;;;5018281;28;20481;-59
2022/12/15 07:45:57;;;;;;;56.67;18.30;;;-1.10;94.90;;;;;;5019272;28;20489;-59
2022/12/15 07:48:26;;;;;;;65.70;18.17;;;;;;;;;;5019327;28;20492;-59
2022/12/15 07:50:56;;;;;;;55.97;16.60;;;-1.20;94.50;;;;;;5018679;28;20538;-59
2022/12/15 07:53:24;;;;;;;53.73;17.57;;;-1.10;94.90;;;;;;5008105;28;20949;-59
2022/12/15 07:55:54;;;;;;;65.83;16.10;;;;;;;;;;5022290;28;20682;-59
2022/12/15 07:58:21;;;;;;;65.70;17.40;;;-1.00;94.60;;;;;;5040065;28;21257;-58
2022/12/15 08:00:48;;;;;;;64.20;17.90;;;;;;;;;;5040921;28;20575;-59
2022/12/15 08:03:15;;;;;;;48.57;14.53;;;-1.00;93.80;;;;;;5040966;28;20913;-59
2022/12/15 08:05:42;;;;;;;64.07;17.00;;;-1.10;93.90;;;;;;5037984;28;20497;-59
2022/12/15 08:08:11;;;;;;;58.63;16.47;;;-1.10;93.80;;;;;;5039689;28;21010;-60
2022/12/15 08:10:39;;;;;;;61.67;17.77;;;-1.10;94.20;;;;;;5038282;28;20511;-60
2022/12/15 08:13:06;;;;;;;50.50;15.50;;;-1.10;94.80;;;;;;5042243;28;20512;-60
2022/12/15 08:15:35;;;;;;;77.87;18.77;;;-1.30;94.60;;;;;;5039551;28;20487;-60
2022/12/15 08:18:02;;;;;;;39.20;11.10;;;;;;;;;;5038703;28;20594;-60
2022/12/15 08:20:30;;;;;;;64.57;17.50;;;-1.20;95.40;;;;;;5037902;28;20830;-60
2022/12/15 08:22:57;;;;;;;57.87;16.67;;;;;;;;;;5039612;28;20534;-58
2022/12/15 08:25:27;;;;;;;66.27;20.60;;;0.50;97.50;;;;;;5036913;28;20480;-59
2022/12/15 08:27:54;;;;;;;55.93;18.43;;;1.70;96.10;;;;;;5021639;28;20541;-60
2022/12/15 08:30:21;;;;;;;62.30;19.70;;;;;;;;;;5021925;28;20828;-60
2022/12/15 08:32:48;;;;;;;52.77;18.27;;;;;;;;;;5012482;28;20642;-60
2022/12/15 08:35:15;;;;;;;52.63;18.60;;;;;;;;;;5028621;28;20477;-60
2022/12/15 08:37:44;;;;;;;58.60;18.23;;;;;;;;;;5017245;28;20485;-60
2022/12/15 08:40:11;;;;;;;52.23;20.83;;;5.70;90.00;;;;;;5038370;28;20476;-60
2022/12/15 08:42:40;;;;;;;50.63;16.97;;;;;;;;;;5039861;28;20488;-60
2022/12/15 08:45:08;;;;;;;53.37;18.70;;;;;;;;;;5040468;28;20987;-61
2022/12/15 08:47:34;;;;;;;67.37;22.97;;;6.20;85.60;;;;;;5039795;28;20491;-61
2022/12/15 08:50:02;;;;;;;54.10;17.90;;;;;;;;;;5039231;28;20487;-61
2022/12/15 08:52:28;;;;;;;70.90;25.57;;;6.70;86.40;;;;;;5036227;28;21010;-60
2022/12/15 08:54:56;;;;;;;66.83;26.57;;;;;;;;;;5023495;28;20470;-61
2022/12/15 08:57:23;;;;;;;46.70;21.63;;;;;;;;;;5014283;28;20477;-61
2022/12/15 08:59:51;;;;;;;63.00;26.67;;;7.00;85.90;;;;;;5023246;28;20472;-61
2022/12/15 09:02:17;;;;;;;68.80;28.57;;;7.30;86.50;;;;;;5017158;28;20477;-61
2022/12/15 09:04:44;;;;;;;70.40;27.10;;;7.10;85.10;;;;;;5016046;28;20989;-60
2022/12/15 09:07:12;;;;;;;57.80;24.40;;;;;;;;;;5008987;28;20555;-61
2022/12/15 09:09:39;;;;;;;54.37;24.43;;;6.60;85.40;;;;;;5029451;28;20485;-60
2022/12/15 09:12:06;;;;;;;48.20;21.07;;;6.30;85.60;;;;;;5019618;28;20838;-60
2022/12/15 09:14:33;;;;;;;66.73;24.03;;;6.00;86.30;;;;;;5018447;28;20477;-60
2022/12/15 09:17:02;;;;;;;44.50;18.30;;;;;;;;;;5020370;28;20485;-60
2022/12/15 09:19:29;;;;;;;50.77;22.63;;;5.60;86.90;;;;;;5017981;28;20485;-60
2022/12/15 09:21:55;;;;;;;47.87;20.20;;;5.50;87.80;;;;;;5018571;28;20488;-61
2022/12/15 09:24:23;;;;;;;51.10;21.10;;;5.20;86.90;;;;;;5017497;28;20486;-60
2022/12/15 09:26:50;;;;;;;38.87;16.43;;;5.00;88.20;;;;;;5019283;28;20568;-59
2022/12/15 09:29:18;;;;;;;55.37;16.63;;;;;;;;;;5017652;28;20496;-60
2022/12/15 09:31:45;;;;;;;45.23;17.57;;;4.50;89.30;;;;;;5017585;28;20499;-59
2022/12/15 09:34:15;;;;;;;36.70;15.47;;;;;;;;;;5017315;28;20496;-60
2022/12/15 09:36:42;;;;;;;49.03;17.77;;;4.20;90.30;;;;;;5020741;28;20496;-60
2022/12/15 09:39:11;;;;;;;44.53;16.93;;;4.10;90.20;;;;;;5022478;28;20517;-60
2022/12/15 09:41:38;;;;;;;66.57;23.60;;;;;;;;;;5029107;28;20488;-60
2022/12/15 09:44:10;;;;;;;51.27;15.60;;;3.90;90.20;;;;;;5037370;28;20483;-60
2022/12/15 09:46:47;;;;;;;53.53;16.83;;;3.70;90.20;;;;;;5024193;28;20488;-59
2022/12/15 09:49:18;;;;;;;56.90;15.60;;;;;;;;;;5015174;28;20878;-60
2022/12/15 09:51:49;;;;;;;65.50;20.60;;;;;;;;;;5022129;28;20973;-59
2022/12/15 09:54:16;;;;;;;60.70;18.67;;;3.30;90.80;;;;;;5022304;28;20496;-60
2022/12/15 09:56:46;;;;;;;49.80;16.47;;;3.20;90.90;;;;;;5023045;28;20488;-60
2022/12/15 09:59:25;;;;;;;44.07;19.27;;;3.10;91.10;;;;;;5021651;28;20487;-59
2022/12/15 10:02:00;;;;;;;41.33;12.40;;;3.00;90.80;;;;;;5021821;28;20489;-61
2022/12/15 10:04:32;;;;;;;58.10;21.33;;;;;;;;;;5021850;28;20472;-59
2022/12/15 10:07:07;;;;;;;52.50;16.30;;;2.80;91.20;;;;;;5012481;28;20473;-60
2022/12/15 10:09:34;;;;;;;91.93;26.40;;;2.90;91.70;;;;;;5037544;28;20491;-59
2022/12/15 10:12:03;;;;;;;51.53;15.70;;;;;;;;;;5042932;28;20675;-59
2022/12/15 10:14:32;;;;;;;60.00;18.53;;;;;;;;;;5032146;28;20468;-59
2022/12/15 10:17:06;;;;;;;56.00;16.30;;;3.00;91.60;;;;;;5020179;28;20976;-59
2022/12/15 10:19:40;;;;;;;84.17;25.33;;;3.10;91.60;;;;;;5030150;28;20479;-59
2022/12/15 10:22:13;;;;;;;73.50;20.80;;;3.10;91.50;;;;;;5040784;28;20962;-59
2022/12/15 10:24:40;;;;;;;53.17;16.70;;;3.20;91.50;;;;;;5039770;28;20484;-59
2022/12/15 10:27:20;;;;;;;48.10;15.37;;;3.10;91.30;;;;;;5035393;28;20473;-59
2022/12/15 10:29:52;;;;;;;56.90;16.30;;;;;;;;;;5027101;28;20485;-58
2022/12/15 10:32:22;;;;;;;79.80;18.37;;;3.20;91.50;;;;;;5042309;28;20480;-60
2022/12/15 10:34:50;;;;;;;71.77;20.60;;;3.30;91.80;;;;;;5017965;28;20488;-60
2022/12/15 10:37:24;;;;;;;46.03;16.77;;;;;;;;;;5032278;28;20481;-59
2022/12/15 10:39:51;;;;;;;50.87;19.23;;;3.20;91.30;;;;;;5031403;28;20563;-59
2022/12/15 10:42:20;;;;;;;50.70;17.43;;;3.20;91.40;;;;;;5030257;28;20499;-59
2022/12/15 10:44:49;;;;;;;71.03;20.60;;;3.10;91.40;;;;;;5035618;28;20480;-59
2022/12/15 10:47:18;;;;;;;52.33;15.17;;;;;;;;;;5036424;28;20488;-59
2022/12/15 10:49:45;;;;;;;59.23;18.70;;;;;;;;;;5040817;28;20483;-59
2022/12/15 10:52:22;;;;;;;68.67;19.37;;;2.90;91.50;;;;;;5042167;28;20480;-60
2022/12/15 10:54:50;;;;;;;85.10;18.50;;;2.90;91.70;;;;;;5036954;28;20476;-60
2022/12/15 10:57:19;;;;;;;53.60;21.03;;;;;;;;;;5038667;28;20484;-60
2022/12/15 10:59:46;;;;;;;65.93;18.13;;;2.80;91.70;;;;;;5035573;28;20484;-60
2022/12/15 11:02:26;;;;;;;33.80;11.53;;;;;;;;;;5031152;28;20497;-59
2022/12/15 11:04:55;;;;;;;43.90;12.13;;;;;;;;;;5048239;28;20481;-60
2022/12/15 11:07:24;;;;;;;48.47;15.93;;;;;;;;;;5019547;28;20485;-60
2022/12/15 11:09:58;;;;;;;42.27;12.83;;;2.60;91.90;;;;;;5030657;28;20481;-60
2022/12/15 11:15:37;;;;;;;43.13;19.60;;;;;;;;;;5030751;28;20521;-60
2022/12/15 11:18:10;;;;;;;66.23;19.97;;;;;;;;;;5041028;28;20472;-60
2022/12/15 11:20:42;;;;;;;87.30;21.83;;;2.90;92.50;;;;;;5031346;28;20738;-60
2022/12/15 11:23:19;;;;;;;70.83;21.20;;;3.00;92.50;;;;;;5014576;28;20837;-60
2022/12/15 11:25:50;;;;;;;80.93;24.00;;;3.00;92.10;;;;;;5020343;28;21000;-60
2022/12/15 11:28:22;;;;;;;51.20;20.73;;;2.90;92.10;;;;;;5037234;28;20482;-60
2022/12/15 11:30:56;;;;;;;51.80;21.07;;;2.80;92.00;;;;;;5018192;28;21044;-60
2022/12/15 11:33:23;;;;;;;62.07;22.27;;;2.80;92.00;;;;;;5006820;28;20523;-60
2022/12/15 11:35:59;;;;;;;54.67;19.70;;;2.70;92.20;;;;;;5011358;28;20499;-60
2022/12/15 11:38:34;;;;;;;71.10;24.60;;;2.70;92.10;;;;;;5039210;28;20484;-60
2022/12/15 11:41:04;;;;;;;47.67;20.30;;;;;;;;;;5039953;28;20491;-60
2022/12/15 11:43:49;;;;;;;66.37;22.93;;;2.70;92.00;;;;;;5039327;28;20487;-60
2022/12/15 11:46:21;;;;;;;54.67;19.67;;;2.60;91.90;;;;;;5008363;28;20521;-60
2022/12/15 11:49:27;;;;;;;45.30;17.07;;;3.00;92.30;;;;;;5042673;28;20485;-60
2022/12/15 11:51:59;;;;;;;54.77;19.37;;;;;;;;;;4984227;28;20493;-60
2022/12/15 11:54:36;;;;;;;60.50;17.00;;;2.40;91.90;;;;;;4999833;28;20650;-60
2022/12/15 11:57:15;;;;;;;53.73;19.40;;;2.40;92.40;;;;;;5035145;28;20519;-60
2022/12/15 11:59:54;;;;;;;55.37;16.70;;;2.20;92.10;;;;;;5031025;28;20480;-60
2022/12/15 12:02:38;;;;;;;52.23;18.60;;;2.20;92.50;;;;;;5038131;28;20479;-60
2022/12/15 12:05:18;;;;;;;45.10;14.20;;;;;;;;;;5039620;28;20551;-60
2022/12/15 12:07:48;;;;;;;55.43;16.70;;;2.00;92.60;;;;;;5040627;28;20484;-60
2022/12/15 12:10:24;;;;;;;49.50;16.30;;;;;;;;;;5040442;28;20546;-60
2022/12/15 12:12:59;;;;;;;49.60;16.60;;;2.10;92.90;;;;;;5037170;28;20479;-60
2022/12/15 12:15:28;;;;;;;75.50;22.53;;;;;;;;;;5038928;28;20479;-60
2022/12/15 12:17:58;;;;;;;45.50;14.40;;;;;;;;;;5038876;28;20483;-60
2022/12/15 12:20:27;;;;;;;59.07;19.00;;;;;;;;;;5031548;28;20479;-60
2022/12/15 12:23:02;;;;;;;51.83;17.67;;;2.10;92.90;;;;;;5024428;28;20896;-60
2022/12/15 12:25:34;;;;;;;68.93;19.30;;;2.00;93.00;;;;;;5017632;28;20964;-60
2022/12/15 12:28:05;;;;;;;59.13;19.23;;;2.10;93.20;;;;;;5056024;28;20480;-59
2022/12/15 12:30:38;;;;;;;62.27;20.97;;;2.10;93.10;;;;;;5029493;28;20563;-60
2022/12/15 12:33:11;;;;;;;61.87;18.07;;;2.10;93.10;;;;;;5032796;28;20861;-60
2022/12/15 12:35:45;;;;;;;87.83;23.13;;;2.10;93.20;;;;;;5020215;28;20831;-61
2022/12/15 12:38:13;;;;;;;50.47;15.83;;;;;;;;;;5019949;28;20478;-61
2022/12/15 12:40:49;;;;;;;49.13;17.13;;;;;;;;;;5016992;28;20492;-59
2022/12/15 12:43:31;;;;;;;61.30;19.20;;;2.30;93.40;;;;;;5020434;28;20492;-60
2022/12/15 12:46:04;;;;;;;52.73;14.10;;;2.40;93.30;;;;;;5031749;28;20528;-60
2022/12/15 12:48:36;;;;;;;80.33;24.13;;;2.40;93.30;;;;;;5024232;28;20493;-60
2022/12/15 12:51:21;;;;;;;56.47;17.30;;;2.50;93.30;;;;;;5033141;28;20528;-60
2022/12/15 12:53:48;;;;;;;49.53;15.20;;;;;;;;;;5024786;28;20635;-60
2022/12/15 12:56:39;;;;;;;41.57;14.30;;;2.30;93.00;;;;;;5032620;28;20553;-60
2022/12/15 12:59:36;;;;;;;46.30;15.13;;;2.30;93.00;;;;;;5028264;28;20527;-60
2022/12/15 13:02:55;;;;;;;40.53;13.60;;;2.30;93.30;;;;;;4996257;28;20543;-60
2022/12/15 13:05:25;;;;;;;52.43;16.90;;;2.40;93.30;;;;;;4987095;28;20465;-60
2022/12/15 13:07:55;;;;;;;52.33;14.83;;;;;;;;;;5017716;28;21004;-60
2022/12/15 13:10:23;;;;;;;52.47;15.90;;;;;;;;;;5017369;28;20488;-59
2022/12/15 13:12:52;;;;;;;50.37;16.27;;;;;;;;;;5018919;28;20977;-60
2022/12/15 13:15:24;;;;;;;53.70;18.90;;;;;;;;;;5038650;28;20882;-59
2022/12/15 13:17:52;;;;;;;49.97;17.63;;;;;;;;;;5038342;28;20483;-60
2022/12/15 13:20:22;;;;;;;59.67;18.70;;;;;;;;;;5036742;28;20468;-60
2022/12/15 13:22:50;;;;;;;56.40;18.87;;;;;;;;;;5022083;28;20480;-60
2022/12/15 13:25:27;;;;;;;54.53;17.87;;;;;;;;;;5024214;28;20976;-60
2022/12/15 13:27:59;;;;;;;40.97;13.13;;;2.50;92.90;;;;;;5026898;28;20977;-60
2022/12/15 13:30:26;;;;;;;43.87;14.47;;;2.60;93.10;;;;;;5033002;28;20472;-60
2022/12/15 13:33:12;;;;;;;31.30;12.23;;;2.60;93.00;;;;;;5040407;28;20468;-60
2022/12/15 13:35:41;;;;;;;42.33;14.73;;;2.80;93.30;;;;;;5041597;28;20486;-60
2022/12/15 13:38:18;;;;;;;37.37;13.57;;;2.90;93.30;;;;;;5029036;28;20824;-60
2022/12/15 13:40:52;;;;;;;55.10;14.20;;;3.00;93.00;;;;;;5021486;28;20485;-60
2022/12/15 13:43:38;;;;;;;42.43;15.37;;;;;;;;;;5022459;28;20484;-60
2022/12/15 13:46:11;;;;;;;58.40;17.53;;;;;;;;;;5013047;28;20825;-60
2022/12/15 13:48:41;;;;;;;49.60;12.87;;;3.10;92.40;;;;;;5013753;28;20496;-60
2022/12/15 13:51:24;;;;;;;33.47;12.93;;;2.90;92.60;;;;;;5028344;28;20482;-60
2022/12/15 13:53:54;;;;;;;47.77;14.43;;;;;;;;;;5023053;28;20480;-60
2022/12/15 13:56:35;;;;;;;41.83;13.43;;;2.80;92.90;;;;;;5036704;28;20479;-60
2022/12/15 13:59:12;;;;;;;32.00;11.40;;;2.80;92.80;;;;;;5033790;28;20492;-60
2022/12/15 14:01:48;;;;;;;46.67;10.70;;;;;;;;;;5033938;28;20886;-60
2022/12/15 14:04:15;;;;;;;46.37;12.73;;;;;;;;;;5038734;28;20864;-60
2022/12/15 14:06:46;;;;;;;32.07;11.37;;;2.50;93.00;;;;;;5030527;28;20836;-60
2022/12/15 14:09:15;;;;;;;35.77;11.30;;;2.40;93.00;;;;;;5047628;28;20477;-60
2022/12/15 14:11:44;;;;;;;45.17;14.07;;;2.40;93.00;;;;;;5023879;28;20489;-60
2022/12/15 14:14:21;;;;;;;58.87;15.83;;;2.40;93.20;;;;;;5024527;28;20670;-60
2022/12/15 14:16:52;;;;;;;36.20;14.53;;;2.50;93.10;;;;;;5038699;28;20924;-60
2022/12/15 14:19:19;;;;;;;40.70;12.37;;;2.50;93.00;;;;;;5039836;28;20620;-60
2022/12/15 14:21:50;;;;;;;46.10;16.10;;;2.40;93.00;;;;;;5038359;28;20488;-59
2022/12/15 14:24:24;;;;;;;46.97;14.43;;;2.40;93.00;;;;;;5040559;28;20492;-60
2022/12/15 14:26:51;;;;;;;34.47;10.90;;;2.40;92.90;;;;;;5037069;28;20483;-60
2022/12/15 14:29:20;;;;;;;36.73;14.53;;;;;;;;;;5039509;28;20569;-60
2022/12/15 14:31:48;;;;;;;49.27;13.27;;;;;;;;;;5040560;28;20511;-59
2022/12/15 14:34:23;;;;;;;35.23;15.13;;;2.30;93.00;;;;;;5042853;28;20480;-60
2022/12/15 14:36:50;;;;;;;54.43;13.50;;;;;;;;;;5042863;28;20491;-60
2022/12/15 14:39:23;;;;;;;46.70;14.50;;;2.30;92.90;;;;;;5032277;28;20831;-60
2022/12/15 14:41:51;;;;;;;52.40;15.33;;;2.20;92.90;;;;;;5010449;28;20490;-60
2022/12/15 14:44:28;;;;;;;70.83;16.97;;;2.20;92.90;;;;;;5024277;28;21167;-60
2022/12/15 14:46:56;;;;;;;33.10;13.20;;;2.10;92.90;;;;;;5037404;28;20533;-60
2022/12/15 14:49:24;;;;;;;61.03;19.30;;;;;;;;;;5035493;28;20576;-60
2022/12/15 14:51:53;;;;;;;46.43;12.77;;;2.00;92.90;;;;;;5039043;28;20496;-60
2022/12/15 14:54:35;;;;;;;39.50;13.60;;;1.90;92.90;;;;;;5035712;28;20472;-60
2022/12/15 14:57:13;;;;;;;43.93;13.30;;;1.80;93.00;;;;;;5009377;28;20492;-60
2022/12/15 14:59:42;;;;;;;36.47;11.20;;;1.70;93.00;;;;;;5013292;28;21045;-60
2022/12/15 15:02:15;;;;;;;56.40;12.47;;;;;;;;;;5020129;28;20489;-60
2022/12/15 15:04:41;;;;;;;49.33;13.00;;;1.50;92.90;;;;;;5024571;28;20480;-60
2022/12/15 15:07:16;;;;;;;46.40;14.77;;;;;;;;;;5040691;28;20483;-59
2022/12/15 15:09:44;;;;;;;37.97;11.80;;;1.30;93.10;;;;;;5035465;28;21241;-59
2022/12/15 15:12:15;;;;;;;41.10;10.60;;;1.30;93.30;;;;;;5019602;28;20835;-60
2022/12/15 15:14:46;;;;;;;55.13;13.60;;;2.50;93.80;;;;;;5018955;28;20484;-60
2022/12/15 15:17:25;;;;;;;51.07;12.13;;;1.10;93.40;;;;;;5020019;28;20485;-59
2022/12/15 15:19:56;;;;;;;48.27;14.77;;;1.20;93.50;;;;;;5022013;28;20500;-59
2022/12/15 15:22:29;;;;;;;52.33;15.93;;;;;;;;;;5022349;28;21177;-59
2022/12/15 15:24:56;;;;;;;42.23;13.93;;;1.10;93.40;;;;;;5020415;28;20496;-59
2022/12/15 15:27:32;;;;;;;45.07;14.97;;;1.00;93.40;;;;;;5026090;28;20489;-61
2022/12/15 15:30:19;;;;;;;51.67;16.10;;;1.00;93.40;;;;;;5035077;28;20817;-60
2022/12/15 15:32:50;;;;;;;54.03;14.27;;;1.00;93.50;;;;;;5023212;28;20491;-60
2022/12/15 15:35:17;;;;;;;52.40;13.00;;;0.90;93.40;;;;;;5031119;28;20477;-61
2022/12/15 15:37:45;;;;;;;77.57;20.90;;;0.90;93.60;;;;;;5024327;28;21220;-60
2022/12/15 15:40:14;;;;;;;67.23;19.90;;;0.90;93.50;;;;;;5038097;28;20476;-60
2022/12/15 15:42:41;;;;;;;63.37;18.23;;;0.90;93.50;;;;;;5034860;28;20857;-60
2022/12/15 15:45:12;;;;;;;33.40;11.90;;;0.80;93.50;;;;;;5042156;28;20494;-60
2022/12/15 15:47:42;;;;;;;51.70;18.27;;;0.80;93.60;;;;;;5010786;28;20648;-60
2022/12/15 15:50:13;;;;;;;59.73;18.07;;;0.80;93.60;;;;;;5022178;28;20544;-61
2022/12/15 15:52:40;;;;;;;63.30;16.07;;;0.70;93.50;;;;;;5029495;28;21101;-59
2022/12/15 15:55:09;;;;;;;53.63;15.27;;;0.70;93.60;;;;;;5038357;28;20573;-59